Time;durP1;ratioP1;P1;durP2;ratioP2;P2;SDS_P1;SDS_P2;PMS_P1;PMS_P2;Temp;Humidity;BMP_temperature;BMP_pressure;BME280_temperature;BME280_humidity;BME280_pressure;Samples;Min_cycle;Max_cycle;Signal;HPM_P1;HPM_P2
2021/12/23 00:00:14;;;;;;;36.17;20.83;;;-0.60;99.90;;;;;;10478680;28;20204;-78
2021/12/23 00:05:36;;;;;;;36.10;20.23;;;-0.60;99.90;;;;;;10449330;28;20234;-78
2021/12/23 00:10:59;;;;;;;35.47;20.93;;;-0.60;99.90;;;;;;10477151;28;20227;-78
2021/12/23 00:16:30;;;;;;;39.30;21.43;;;-0.50;99.90;;;;;;10450015;28;20194;-79
2021/12/23 00:27:33;;;;;;;37.13;20.70;;;-0.60;99.90;;;;;;10435694;28;20206;-77
2021/12/23 00:32:59;;;;;;;34.87;19.73;;;-0.60;99.90;;;;;;10435540;28;20201;-78
2021/12/23 00:38:35;;;;;;;30.30;19.17;;;-0.60;99.90;;;;;;10449044;28;20571;-78
2021/12/23 00:43:59;;;;;;;35.63;19.50;;;-0.60;99.90;;;;;;10448848;28;20202;-78
2021/12/23 00:49:21;;;;;;;33.00;20.27;;;-0.50;99.90;;;;;;10476610;28;20227;-78
2021/12/23 00:54:43;;;;;;;33.17;19.30;;;-0.50;99.90;;;;;;10476732;28;20549;-79
2021/12/23 01:00:09;;;;;;;36.27;19.70;;;-0.50;99.90;;;;;;10490566;28;20227;-78
2021/12/23 01:05:32;;;;;;;32.57;19.33;;;-0.50;99.90;;;;;;10495642;28;20276;-77
2021/12/23 01:10:57;;;;;;;30.43;19.87;;;-0.70;99.90;;;;;;10470041;28;20226;-77
2021/12/23 01:16:36;;;;;;;36.07;19.93;;;-0.70;99.90;;;;;;10498180;28;20244;-77
2021/12/23 01:21:57;;;;;;;35.73;19.83;;;-0.70;99.90;;;;;;10483504;28;20222;-78
2021/12/23 01:27:19;;;;;;;36.83;21.63;;;-0.70;99.90;;;;;;10469257;28;20197;-77
2021/12/23 01:32:42;;;;;;;33.93;20.93;;;-0.80;99.90;;;;;;10485864;28;20252;-78
2021/12/23 01:38:04;;;;;;;39.13;20.77;;;-0.80;99.90;;;;;;10483905;28;20243;-78
2021/12/23 01:43:26;;;;;;;34.77;20.87;;;-0.80;99.90;;;;;;10493038;28;20453;-78
2021/12/23 01:48:49;;;;;;;34.97;20.37;;;-0.90;99.90;;;;;;10482580;28;20238;-78
2021/12/23 01:54:13;;;;;;;39.33;22.83;;;-0.90;99.90;;;;;;10469173;28;20192;-78
2021/12/23 01:59:35;;;;;;;40.90;21.63;;;-1.00;99.90;;;;;;10468624;28;20202;-78
2021/12/23 02:04:58;;;;;;;37.70;20.33;;;-1.00;99.90;;;;;;10453713;28;20248;-78
2021/12/23 02:10:20;;;;;;;40.13;21.50;;;-1.10;99.90;;;;;;10481868;28;20225;-78
2021/12/23 02:15:42;;;;;;;42.23;20.93;;;-1.10;99.90;;;;;;10481133;28;20234;-79
2021/12/23 02:21:06;;;;;;;39.47;22.80;;;-1.10;99.90;;;;;;10467223;28;20202;-78
2021/12/23 02:26:27;;;;;;;42.13;23.10;;;-1.10;99.90;;;;;;10481126;28;20197;-77
2021/12/23 02:31:51;;;;;;;40.20;23.20;;;-1.20;99.90;;;;;;10494768;28;20699;-78
2021/12/23 02:37:15;;;;;;;44.93;23.60;;;-1.20;99.90;;;;;;10466676;28;20251;-78
2021/12/23 02:42:38;;;;;;;42.03;22.90;;;-1.30;99.90;;;;;;10473810;28;20447;-77
2021/12/23 02:48:00;;;;;;;47.40;24.47;;;-1.30;99.90;;;;;;10453220;28;20201;-78
2021/12/23 02:53:22;;;;;;;42.97;22.83;;;-1.40;99.90;;;;;;10439862;28;20787;-78
2021/12/23 02:58:45;;;;;;;41.30;22.77;;;-1.40;99.90;;;;;;10479730;28;20220;-78
2021/12/23 03:04:08;;;;;;;36.70;21.93;;;-1.30;99.90;;;;;;10479219;28;20316;-80
2021/12/23 03:09:29;;;;;;;42.63;23.10;;;-1.40;99.90;;;;;;10451489;28;20230;-80
2021/12/23 03:14:51;;;;;;;40.37;23.23;;;-1.40;99.90;;;;;;10465070;28;20260;-80
2021/12/23 03:20:13;;;;;;;42.27;24.50;;;-1.40;99.90;;;;;;10478732;28;20222;-80
2021/12/23 03:25:35;;;;;;;40.93;24.03;;;-1.40;99.90;;;;;;10478403;28;20247;-81
2021/12/23 03:30:58;;;;;;;42.30;23.07;;;-1.40;99.90;;;;;;10478272;28;20250;-78
2021/12/23 03:36:20;;;;;;;46.37;25.37;;;-1.50;99.90;;;;;;10492610;28;20200;-80
2021/12/23 03:41:42;;;;;;;41.07;24.53;;;-1.60;99.90;;;;;;10478816;28;20238;-80
2021/12/23 03:47:04;;;;;;;48.47;26.53;;;-1.60;99.90;;;;;;10478357;28;20268;-79
2021/12/23 03:52:26;;;;;;;50.27;27.70;;;-1.60;99.90;;;;;;10449989;28;20226;-80
2021/12/23 03:57:49;;;;;;;54.00;28.20;;;-1.50;99.90;;;;;;10477404;28;20296;-81
2021/12/23 04:03:12;;;;;;;56.70;29.60;;;-1.60;99.90;;;;;;10463245;28;20204;-80
2021/12/23 04:08:34;;;;;;;51.27;27.33;;;-1.50;99.90;;;;;;10491549;28;20225;-80
2021/12/23 04:13:55;;;;;;;55.63;29.97;;;-1.50;99.90;;;;;;10476872;28;20202;-78
2021/12/23 04:19:17;;;;;;;57.60;30.73;;;-1.60;99.90;;;;;;10463112;28;20194;-81
2021/12/23 04:24:39;;;;;;;52.77;29.23;;;-1.60;99.90;;;;;;10476790;28;20204;-81
2021/12/23 04:30:02;;;;;;;54.57;29.87;;;-1.50;99.90;;;;;;10476670;28;20486;-80
2021/12/23 04:35:25;;;;;;;50.90;29.73;;;-1.60;99.90;;;;;;10476557;28;20396;-80
2021/12/23 04:40:47;;;;;;;55.03;30.07;;;-1.80;99.90;;;;;;10478408;28;20405;-81
2021/12/23 04:46:10;;;;;;;53.33;30.13;;;-1.70;99.90;;;;;;10441795;28;20259;-81
2021/12/23 04:51:32;;;;;;;51.63;29.23;;;-1.70;99.90;;;;;;10415972;28;20267;-80
2021/12/23 04:56:54;;;;;;;58.73;30.93;;;-1.70;99.90;;;;;;10455111;28;20217;-80
2021/12/23 05:02:17;;;;;;;51.13;28.47;;;-1.70;99.90;;;;;;10485529;28;20608;-80
2021/12/23 05:07:39;;;;;;;54.83;29.03;;;-1.60;99.90;;;;;;10469932;28;20597;-80
2021/12/23 05:13:02;;;;;;;49.07;28.27;;;-1.70;99.90;;;;;;10469401;28;20267;-80
2021/12/23 05:18:25;;;;;;;48.93;27.97;;;-1.60;99.90;;;;;;10484828;28;20224;-80
2021/12/23 05:23:46;;;;;;;57.67;31.23;;;-1.50;99.90;;;;;;10455907;28;20193;-81
2021/12/23 05:29:09;;;;;;;57.87;32.27;;;-1.50;99.90;;;;;;10441978;28;20215;-80
2021/12/23 05:34:31;;;;;;;50.70;29.83;;;-1.50;99.90;;;;;;10441927;28;20200;-78
2021/12/23 05:39:53;;;;;;;56.20;29.47;;;-1.50;99.90;;;;;;10442622;28;20382;-81
2021/12/23 05:45:16;;;;;;;52.17;29.40;;;-1.50;99.90;;;;;;10462988;28;20205;-80
2021/12/23 05:50:38;;;;;;;57.33;31.83;;;-1.50;99.90;;;;;;10481473;28;20265;-80
2021/12/23 05:56:00;;;;;;;52.23;30.63;;;-1.50;99.90;;;;;;10467871;28;20231;-81
2021/12/23 06:01:22;;;;;;;57.53;29.37;;;-1.50;99.90;;;;;;10481920;28;20259;-81
2021/12/23 06:06:44;;;;;;;58.73;31.40;;;-1.40;99.90;;;;;;10483256;28;20297;-80
2021/12/23 06:12:06;;;;;;;56.47;30.07;;;-1.50;99.90;;;;;;10467419;28;20218;-80
2021/12/23 06:17:29;;;;;;;59.63;32.07;;;-1.60;99.90;;;;;;10483354;28;20194;-79
2021/12/23 06:22:51;;;;;;;60.03;31.53;;;-1.60;99.90;;;;;;10461257;28;20250;-79
2021/12/23 06:28:13;;;;;;;59.30;32.10;;;-1.60;99.90;;;;;;10480821;28;20199;-80
2021/12/23 06:33:35;;;;;;;53.83;31.40;;;-1.60;99.90;;;;;;10480589;28;20228;-80
2021/12/23 06:38:57;;;;;;;68.83;35.97;;;-1.60;99.90;;;;;;10466376;28;20247;-79
2021/12/23 06:44:20;;;;;;;53.83;31.67;;;-1.70;99.90;;;;;;10442860;28;20210;-79
2021/12/23 06:49:42;;;;;;;58.50;30.07;;;-1.70;99.90;;;;;;10441744;28;20228;-80
2021/12/23 06:55:07;;;;;;;61.50;31.10;;;-1.70;99.90;;;;;;10439616;28;20194;-80
2021/12/23 07:00:29;;;;;;;61.97;33.70;;;-1.70;99.90;;;;;;10439308;28;20520;-80
2021/12/23 07:05:57;;;;;;;372.33;107.37;;;-1.80;99.90;;;;;;10439024;28;20228;-80
2021/12/23 07:11:19;;;;;;;164.93;67.70;;;-1.80;99.90;;;;;;10434943;28;20227;-80
2021/12/23 07:16:42;;;;;;;65.70;35.73;;;-1.80;99.90;;;;;;10465054;28;20505;-80
2021/12/23 07:22:04;;;;;;;63.40;32.87;;;-1.70;99.90;;;;;;10478630;28;20258;-81
2021/12/23 07:27:26;;;;;;;58.80;32.87;;;-1.70;99.90;;;;;;10492843;28;20217;-80
2021/12/23 07:32:49;;;;;;;57.33;31.60;;;-1.70;99.90;;;;;;10478398;28;20275;-80
2021/12/23 07:38:11;;;;;;;55.53;31.07;;;-1.70;99.90;;;;;;10464590;28;20560;-79
2021/12/23 07:48:56;;;;;;;61.70;32.17;;;-1.60;99.90;;;;;;10450965;28;20205;-81
2021/12/23 07:54:18;;;;;;;70.13;34.43;;;-1.60;99.90;;;;;;10422424;28;20202;-79
2021/12/23 07:59:40;;;;;;;68.93;35.57;;;-1.50;99.90;;;;;;10472310;28;20267;-80
2021/12/23 08:05:03;;;;;;;81.73;40.60;;;-1.50;99.90;;;;;;10477299;28;20236;-79
2021/12/23 08:10:25;;;;;;;91.00;48.13;;;-1.50;99.90;;;;;;10476917;28;20413;-80
2021/12/23 08:15:47;;;;;;;75.07;38.93;;;-1.40;99.90;;;;;;10476396;28;20437;-79
2021/12/23 08:21:11;;;;;;;60.47;31.70;;;-1.40;99.90;;;;;;10476636;28;20518;-79
2021/12/23 08:26:40;;;;;;;66.10;36.47;;;-1.40;99.90;;;;;;10476632;28;20281;-79
2021/12/23 08:32:03;;;;;;;87.40;45.63;;;-1.30;99.90;;;;;;10459907;28;20240;-80
2021/12/23 08:37:26;;;;;;;74.77;40.57;;;-1.20;99.90;;;;;;10422283;28;20418;-78
2021/12/23 08:42:50;;;;;;;77.07;39.70;;;-1.20;99.90;;;;;;10450179;28;20242;-78
2021/12/23 08:48:12;;;;;;;72.10;38.63;;;-1.20;99.90;;;;;;10456310;28;20194;-78
2021/12/23 08:53:34;;;;;;;76.93;42.57;;;-1.20;99.90;;;;;;10455828;28;20313;-77
2021/12/23 08:58:56;;;;;;;77.83;37.63;;;-1.10;99.90;;;;;;10456662;28;20192;-78
2021/12/23 09:04:22;;;;;;;90.30;45.53;;;-1.10;99.90;;;;;;10469684;28;20220;-77
2021/12/23 09:09:50;;;;;;;142.77;62.80;;;-1.00;99.90;;;;;;10481626;28;20294;-78
2021/12/23 09:15:13;;;;;;;101.10;49.73;;;-1.00;99.90;;;;;;10454547;28;20202;-79
2021/12/23 09:20:36;;;;;;;92.13;47.37;;;-1.00;99.90;;;;;;10454437;28;20229;-79
2021/12/23 09:25:58;;;;;;;75.07;38.93;;;-1.10;99.90;;;;;;10490014;28;20196;-78
2021/12/23 09:37:03;;;;;;;68.30;36.30;;;-1.10;99.90;;;;;;10476214;28;20411;-79
2021/12/23 09:42:28;;;;;;;75.90;37.70;;;-1.10;99.90;;;;;;10442858;28;20248;-80
2021/12/23 09:47:50;;;;;;;76.50;37.80;;;-1.10;99.90;;;;;;10489911;28;20201;-79
2021/12/23 09:53:17;;;;;;;104.60;47.23;;;-1.00;99.90;;;;;;10502028;28;20234;-83
2021/12/23 09:58:40;;;;;;;76.97;39.93;;;-0.90;99.90;;;;;;10507823;28;20189;-79
2021/12/23 10:04:04;;;;;;;57.87;30.33;;;-0.90;99.90;;;;;;10474551;28;20240;-78
2021/12/23 10:27:07;;;;;;;63.63;33.23;;;-0.70;99.90;;;;;;10492484;28;20264;-78
2021/12/23 10:38:19;;;;;;;75.07;37.17;;;-0.70;99.90;;;;;;10475498;28;20194;-78
2021/12/23 10:44:00;;;;;;;61.40;31.13;;;-0.60;99.90;;;;;;10459244;28;20210;-78
2021/12/23 10:49:32;;;;;;;65.60;33.27;;;-0.60;99.90;;;;;;10461132;28;20210;-79
2021/12/23 11:00:34;;;;;;;62.67;33.97;;;-0.50;99.90;;;;;;10475895;28;20248;-78
2021/12/23 11:06:26;;;;;;;59.17;33.23;;;-0.50;99.90;;;;;;10481180;28;20250;-79
2021/12/23 11:45:29;;;;;;;63.23;33.27;;;0.00;99.90;;;;;;10288748;28;20232;-79
2021/12/23 11:51:05;;;;;;;69.73;34.67;;;0.20;99.90;;;;;;10304903;28;20255;-79
2021/12/23 11:56:28;;;;;;;63.50;33.23;;;0.30;99.90;;;;;;10300707;28;20224;-79
2021/12/23 12:01:55;;;;;;;60.27;32.63;;;0.40;99.90;;;;;;10306077;28;20224;-79
2021/12/23 12:07:22;;;;;;;57.73;32.10;;;0.60;99.90;;;;;;10270694;28;20314;-79
2021/12/23 12:13:01;;;;;;;64.33;34.47;;;0.70;99.90;;;;;;10472361;28;20318;-79
2021/12/23 12:18:23;;;;;;;61.47;31.23;;;0.60;99.90;;;;;;10502147;28;20281;-79
2021/12/23 12:23:45;;;;;;;56.13;29.00;;;0.50;99.90;;;;;;10513454;28;20505;-79
2021/12/23 12:29:08;;;;;;;56.47;29.83;;;0.40;99.90;;;;;;10526196;28;20235;-79
2021/12/23 12:34:40;;;;;;;61.30;30.43;;;0.20;99.90;;;;;;10496666;28;20233;-79
2021/12/23 12:40:02;;;;;;;48.53;28.77;;;0.10;99.90;;;;;;10527415;28;20191;-81
2021/12/23 12:45:26;;;;;;;54.70;30.00;;;0.10;99.90;;;;;;10453589;28;20212;-78
2021/12/23 12:50:52;;;;;;;58.40;30.50;;;0.10;99.90;;;;;;10510083;28;20230;-78
2021/12/23 12:56:25;;;;;;;59.53;32.40;;;0.00;99.90;;;;;;10511999;28;20191;-78
2021/12/23 13:01:50;;;;;;;53.50;27.93;;;0.00;99.90;;;;;;10519571;28;20191;-78
2021/12/23 13:07:30;;;;;;;60.57;32.17;;;0.00;99.90;;;;;;10544020;28;20312;-78
2021/12/23 13:13:40;;;;;;;73.40;39.63;;;-0.10;99.90;;;;;;10377525;28;20599;-78
2021/12/23 13:19:34;;;;;;;67.30;34.80;;;0.00;99.90;;;;;;10373941;28;20368;-80
2021/12/23 13:24:58;;;;;;;68.63;33.50;;;-0.20;99.90;;;;;;10375988;28;20216;-80
2021/12/23 13:30:21;;;;;;;60.70;31.23;;;-0.20;99.90;;;;;;10375533;28;20242;-80
2021/12/23 13:35:43;;;;;;;61.30;30.77;;;-0.20;99.90;;;;;;10353822;28;20242;-80
2021/12/23 13:41:36;;;;;;;56.63;32.23;;;-0.30;99.90;;;;;;10414793;28;20245;-81
2021/12/23 13:47:07;;;;;;;47.30;27.33;;;-0.40;99.90;;;;;;10519099;28;20211;-82
2021/12/23 13:52:31;;;;;;;66.33;39.17;;;-0.40;99.90;;;;;;10504082;28;20232;-80
2021/12/23 13:57:56;;;;;;;74.83;39.33;;;-0.50;99.90;;;;;;10517824;28;20203;-80
2021/12/23 14:03:21;;;;;;;70.13;35.70;;;-0.50;99.90;;;;;;10504137;28;20202;-79
2021/12/23 14:08:43;;;;;;;53.67;29.67;;;-0.50;99.90;;;;;;10518984;28;20205;-77
2021/12/23 14:14:18;;;;;;;61.57;32.73;;;-0.50;99.90;;;;;;10531119;28;20222;-80
2021/12/23 14:25:59;;;;;;;56.50;31.53;;;-0.60;99.90;;;;;;10517929;28;20194;-80
2021/12/23 14:31:33;;;;;;;66.77;36.40;;;-0.50;99.90;;;;;;10502198;28;20263;-79
2021/12/23 14:36:59;;;;;;;62.87;35.27;;;-0.50;99.90;;;;;;10515425;28;20404;-79
2021/12/23 14:42:21;;;;;;;94.83;43.27;;;-0.60;99.90;;;;;;10496879;28;20293;-80
2021/12/23 14:47:57;;;;;;;68.97;34.80;;;-0.50;99.90;;;;;;10505756;28;20190;-80
2021/12/23 14:53:20;;;;;;;61.33;32.20;;;-0.60;99.90;;;;;;10528354;28;20233;-80
2021/12/23 14:58:43;;;;;;;64.37;32.53;;;-0.80;99.90;;;;;;10515465;28;20203;-79
2021/12/23 15:04:07;;;;;;;64.80;34.90;;;-0.90;99.90;;;;;;10522438;28;20246;-80
2021/12/23 15:09:37;;;;;;;82.70;42.67;;;-0.90;99.90;;;;;;10541749;28;20261;-80
2021/12/23 15:15:06;;;;;;;80.03;39.87;;;-0.80;99.90;;;;;;10526982;28;20204;-80
2021/12/23 15:20:31;;;;;;;77.53;39.60;;;-0.80;99.90;;;;;;10520577;28;20209;-79
2021/12/23 15:25:59;;;;;;;77.03;35.93;;;-0.80;99.90;;;;;;10535373;28;20217;-79
2021/12/23 15:31:25;;;;;;;63.07;34.07;;;-0.80;99.90;;;;;;10543213;28;20269;-79
2021/12/23 15:36:49;;;;;;;62.37;34.40;;;-0.80;99.90;;;;;;10529633;28;20198;-77
2021/12/23 15:42:13;;;;;;;68.80;35.00;;;-0.90;99.90;;;;;;10504960;28;20461;-79
2021/12/23 15:47:47;;;;;;;78.80;38.73;;;-1.10;99.90;;;;;;10521660;28;20201;-79
2021/12/23 15:53:12;;;;;;;75.87;38.93;;;-1.10;99.90;;;;;;10518026;28;20232;-79
2021/12/23 15:58:35;;;;;;;71.23;34.17;;;-1.10;99.90;;;;;;10507585;28;20245;-81
2021/12/23 16:04:08;;;;;;;91.53;43.13;;;-1.10;99.90;;;;;;10527187;28;20223;-80
2021/12/23 16:09:29;;;;;;;81.53;41.37;;;-1.00;99.90;;;;;;10515116;28;20426;-79
2021/12/23 16:14:54;;;;;;;76.03;37.83;;;-0.90;99.90;;;;;;10514814;28;20240;-83
2021/12/23 16:20:21;;;;;;;70.97;35.17;;;-1.00;99.90;;;;;;10515428;28;20197;-82
2021/12/23 16:25:43;;;;;;;73.17;35.23;;;-0.90;99.90;;;;;;10522682;28;20205;-81
2021/12/23 16:31:11;;;;;;;76.17;36.73;;;-0.90;99.90;;;;;;10544763;28;20553;-79
2021/12/23 16:36:37;;;;;;;71.90;34.13;;;-1.00;99.90;;;;;;10524013;28;20519;-79
2021/12/23 16:41:59;;;;;;;66.80;34.07;;;-1.00;99.90;;;;;;10505525;28;20498;-80
2021/12/23 16:47:21;;;;;;;77.60;35.47;;;-1.10;99.90;;;;;;10511888;28;20191;-79
2021/12/23 16:52:50;;;;;;;78.60;37.13;;;-1.10;99.90;;;;;;10539770;28;20250;-80
2021/12/23 16:58:18;;;;;;;78.63;34.77;;;-1.10;99.90;;;;;;10554104;28;20193;-79
2021/12/23 17:03:41;;;;;;;83.60;37.00;;;-1.20;99.90;;;;;;10524341;28;20218;-79
2021/12/23 17:09:05;;;;;;;68.27;33.33;;;-1.10;99.90;;;;;;10539633;28;20200;-80
2021/12/23 17:14:26;;;;;;;65.47;32.60;;;-1.10;99.90;;;;;;10510008;28;20225;-79
2021/12/23 17:20:01;;;;;;;64.00;31.57;;;-1.20;99.90;;;;;;10525424;28;20242;-79
2021/12/23 17:25:25;;;;;;;61.13;29.67;;;-1.10;99.90;;;;;;10510169;28;20261;-79
2021/12/23 17:30:48;;;;;;;56.13;30.10;;;-1.10;99.90;;;;;;10524592;28;20272;-79
2021/12/23 17:36:10;;;;;;;63.93;33.33;;;-1.20;99.90;;;;;;10524800;28;20193;-79
2021/12/23 17:41:33;;;;;;;59.47;30.13;;;-1.20;99.90;;;;;;10534595;28;20226;-80
2021/12/23 17:46:55;;;;;;;66.00;33.63;;;-1.10;99.90;;;;;;10522697;28;20231;-79
2021/12/23 17:52:17;;;;;;;63.47;33.03;;;-1.00;99.90;;;;;;10523176;28;20225;-79
2021/12/23 17:57:39;;;;;;;66.57;33.07;;;-1.00;99.90;;;;;;10495259;28;20194;-79
2021/12/23 18:03:01;;;;;;;62.57;31.13;;;-1.10;99.90;;;;;;10522679;28;20200;-79
2021/12/23 18:08:23;;;;;;;61.47;30.60;;;-1.30;99.90;;;;;;10509247;28;20252;-78
2021/12/23 18:13:45;;;;;;;70.77;32.67;;;-1.30;99.90;;;;;;10494724;28;20416;-79
2021/12/23 18:19:08;;;;;;;66.80;33.60;;;-1.40;99.90;;;;;;10480656;28;20220;-79
2021/12/23 18:24:31;;;;;;;67.23;34.67;;;-1.40;99.90;;;;;;10509205;28;20370;-79
2021/12/23 18:29:53;;;;;;;64.50;32.40;;;-1.30;99.90;;;;;;10481192;28;20194;-79
2021/12/23 18:35:21;;;;;;;65.20;32.53;;;-1.40;99.90;;;;;;10489597;28;20523;-79
2021/12/23 18:40:46;;;;;;;88.27;39.70;;;-1.40;99.90;;;;;;10507099;28;20265;-79
2021/12/23 18:46:17;;;;;;;73.30;34.80;;;-1.40;99.90;;;;;;10512982;28;20250;-79
2021/12/23 18:51:38;;;;;;;72.30;33.00;;;-1.50;99.90;;;;;;10520804;28;20268;-79
2021/12/23 18:57:01;;;;;;;65.37;32.77;;;-1.50;99.90;;;;;;10520377;28;20196;-78
2021/12/23 19:03:11;;;;;;;68.00;33.50;;;-1.40;99.90;;;;;;10522890;28;20559;-78
2021/12/23 19:08:08;;;;;;;73.20;33.83;;;-1.60;99.90;;;;;;10506468;28;20236;-78
2021/12/23 19:13:30;;;;;;;70.13;34.30;;;-1.50;99.90;;;;;;10519865;28;20232;-79
2021/12/23 19:18:53;;;;;;;71.47;35.83;;;-1.60;99.90;;;;;;10518330;28;20205;-79
2021/12/23 19:24:16;;;;;;;76.33;36.03;;;-1.50;99.90;;;;;;10477482;28;20383;-79
2021/12/23 19:29:39;;;;;;;68.33;34.37;;;-1.30;99.90;;;;;;10497807;28;20247;-79
2021/12/23 19:35:02;;;;;;;93.80;41.80;;;-1.40;99.90;;;;;;10463922;28;20231;-78
2021/12/23 19:40:25;;;;;;;81.03;39.50;;;-1.30;99.90;;;;;;10477959;28;20242;-78
2021/12/23 19:45:47;;;;;;;86.30;41.20;;;-1.30;99.90;;;;;;10504602;28;20397;-78
2021/12/23 19:51:09;;;;;;;75.60;36.53;;;-1.30;99.90;;;;;;10508196;28;20289;-79
2021/12/23 19:56:31;;;;;;;80.27;40.63;;;-1.40;99.90;;;;;;10547206;28;20242;-79
2021/12/23 20:01:56;;;;;;;102.03;40.00;;;-1.40;99.90;;;;;;10518543;28;20391;-80
2021/12/23 20:07:19;;;;;;;75.37;36.10;;;-1.40;99.90;;;;;;10491759;28;20251;-78
2021/12/23 20:12:41;;;;;;;76.60;38.10;;;-1.40;99.90;;;;;;10517638;28;20559;-78
2021/12/23 20:18:05;;;;;;;87.77;39.20;;;-1.30;99.90;;;;;;10504156;28;20205;-78
2021/12/23 20:23:27;;;;;;;92.63;43.73;;;-1.30;99.90;;;;;;10517798;28;20196;-78
2021/12/23 20:28:52;;;;;;;73.20;37.63;;;-1.40;99.90;;;;;;10532336;28;20198;-78
2021/12/23 20:34:15;;;;;;;75.37;36.27;;;-1.30;99.90;;;;;;10517578;28;20564;-76
2021/12/23 20:39:37;;;;;;;84.80;41.70;;;-1.30;99.90;;;;;;10489255;28;20389;-77
2021/12/23 20:44:59;;;;;;;83.03;41.43;;;-1.30;99.90;;;;;;10503340;28;20240;-77
2021/12/23 20:50:31;;;;;;;81.27;39.90;;;-1.30;99.90;;;;;;10518335;28;20200;-76
2021/12/23 20:55:59;;;;;;;76.10;38.37;;;-1.40;99.90;;;;;;10465437;28;20199;-77
2021/12/23 21:01:25;;;;;;;83.80;40.30;;;-1.40;99.90;;;;;;10517638;28;20205;-77
2021/12/23 21:06:47;;;;;;;92.00;43.47;;;-1.40;99.90;;;;;;10520347;28;20268;-77
2021/12/23 21:12:10;;;;;;;91.93;42.13;;;-1.50;99.90;;;;;;10516700;28;20232;-77
2021/12/23 21:17:32;;;;;;;81.77;38.87;;;-1.50;99.90;;;;;;10505670;28;20247;-77
2021/12/23 21:22:54;;;;;;;85.77;43.03;;;-1.50;99.90;;;;;;10508301;28;20540;-77
2021/12/23 21:28:16;;;;;;;79.00;39.00;;;-1.50;99.90;;;;;;10511254;28;20197;-77
2021/12/23 21:33:39;;;;;;;78.70;38.47;;;-1.50;99.90;;;;;;10509969;28;20229;-77
2021/12/23 21:39:01;;;;;;;83.23;39.50;;;-1.50;99.90;;;;;;10482348;28;20492;-77
2021/12/23 21:44:24;;;;;;;70.67;37.13;;;-1.40;99.90;;;;;;10521440;28;20205;-78
2021/12/23 21:49:48;;;;;;;75.77;37.87;;;-1.50;99.90;;;;;;10510047;28;20193;-77
2021/12/23 21:55:27;;;;;;;82.33;39.07;;;-1.50;99.90;;;;;;10508876;28;20223;-77
2021/12/23 22:00:49;;;;;;;94.93;41.20;;;-1.50;99.90;;;;;;10498310;28;20272;-77
2021/12/23 22:06:13;;;;;;;85.37;39.00;;;-1.40;99.90;;;;;;10481599;28;20230;-77
2021/12/23 22:11:35;;;;;;;90.70;41.23;;;-1.50;99.90;;;;;;10497908;28;20224;-77
2021/12/23 22:16:57;;;;;;;82.93;39.97;;;-1.40;99.90;;;;;;10510796;28;20203;-78
2021/12/23 22:22:19;;;;;;;80.37;40.83;;;-1.40;99.90;;;;;;10521920;28;20430;-77
2021/12/23 22:27:42;;;;;;;80.47;40.30;;;-1.40;99.90;;;;;;10508486;28;20201;-77
2021/12/23 22:33:05;;;;;;;82.03;39.57;;;-1.40;99.90;;;;;;10521472;28;20225;-77
2021/12/23 22:38:27;;;;;;;76.00;37.83;;;-1.40;99.90;;;;;;10466733;28;20194;-78
2021/12/23 22:43:50;;;;;;;73.27;37.03;;;-1.30;99.90;;;;;;10473003;28;20208;-78
2021/12/23 22:49:12;;;;;;;77.40;39.73;;;-1.30;99.90;;;;;;10506327;28;20234;-79
2021/12/23 22:54:34;;;;;;;87.33;41.23;;;-1.30;99.90;;;;;;10521628;28;20238;-78
2021/12/23 22:59:57;;;;;;;80.10;40.07;;;-1.30;99.90;;;;;;10507604;28;20189;-77
2021/12/23 23:05:25;;;;;;;74.97;36.63;;;-1.30;99.90;;;;;;10507943;28;20419;-78
2021/12/23 23:21:58;;;;;;;73.10;38.97;;;-1.30;99.90;;;;;;10562839;28;20210;-78
2021/12/23 23:27:25;;;;;;;74.73;39.03;;;-1.30;99.90;;;;;;10563856;28;20197;-78
2021/12/23 23:38:44;;;;;;;69.10;35.53;;;-1.30;99.90;;;;;;10525217;28;20197;-77
2021/12/23 23:44:06;;;;;;;70.03;36.80;;;-1.30;99.90;;;;;;10532049;28;20270;-78
2021/12/23 23:49:29;;;;;;;84.53;46.30;;;-1.20;99.90;;;;;;10518485;28;20431;-78
2021/12/23 23:54:53;;;;;;;83.80;40.90;;;-1.20;99.90;;;;;;10518717;28;20249;-78
